Time;durP1;ratioP1;P1;durP2;ratioP2;P2;SDS_P1;SDS_P2;PMS_P1;PMS_P2;Temp;Humidity;BMP_temperature;BMP_pressure;BME280_temperature;BME280_humidity;BME280_pressure;Samples;Min_cycle;Max_cycle;Signal;HPM_P1;HPM_P2
2021/09/07 00:00:29;;;;;;;11.83;10.63;;;17.60;99.90;;;;;;5015546;28;20407;-57
2021/09/07 00:02:55;;;;;;;10.27;9.27;;;17.60;99.90;;;;;;5015447;28;20541;-58
2021/09/07 00:05:21;;;;;;;9.80;8.80;;;17.60;99.90;;;;;;5015477;28;20184;-58
2021/09/07 00:07:46;;;;;;;10.97;9.97;;;17.70;99.90;;;;;;5015796;28;20560;-57
2021/09/07 00:10:14;;;;;;;9.50;8.60;;;17.60;99.90;;;;;;5015303;28;20172;-58
2021/09/07 00:12:40;;;;;;;14.70;9.90;;;17.60;99.90;;;;;;5015932;28;20683;-58
2021/09/07 00:15:08;;;;;;;11.00;9.43;;;17.60;99.90;;;;;;5015001;28;20445;-58
2021/09/07 00:17:34;;;;;;;11.27;10.20;;;17.50;99.90;;;;;;5014803;28;20411;-58
2021/09/07 00:19:59;;;;;;;12.53;10.00;;;17.50;99.90;;;;;;5015224;28;20487;-57
2021/09/07 00:22:25;;;;;;;11.33;10.10;;;17.50;99.90;;;;;;5014982;28;20627;-58
2021/09/07 00:24:51;;;;;;;11.17;10.17;;;17.50;99.90;;;;;;5014971;28;20211;-58
2021/09/07 00:27:16;;;;;;;10.90;9.80;;;17.40;99.90;;;;;;5015150;28;20161;-57
2021/09/07 00:29:42;;;;;;;10.20;9.20;;;17.30;99.90;;;;;;5015141;28;20179;-57
2021/09/07 00:32:08;;;;;;;10.67;9.20;;;17.30;99.90;;;;;;5014567;28;20174;-58
2021/09/07 00:34:34;;;;;;;11.13;10.03;;;17.30;99.90;;;;;;5013807;28;20195;-58
2021/09/07 00:37:01;;;;;;;10.17;9.27;;;17.30;99.90;;;;;;5014804;28;20437;-58
2021/09/07 00:39:27;;;;;;;12.03;10.83;;;17.30;99.90;;;;;;5014948;28;20956;-58
2021/09/07 00:41:52;;;;;;;12.30;11.07;;;17.30;99.90;;;;;;5014483;28;20414;-57
2021/09/07 00:44:23;;;;;;;11.33;10.20;;;17.20;99.90;;;;;;5014458;28;20632;-56
2021/09/07 00:46:57;;;;;;;11.10;10.00;;;17.30;99.90;;;;;;5014344;28;20168;-58
2021/09/07 00:49:25;;;;;;;11.93;10.73;;;17.30;99.90;;;;;;5014227;28;20933;-58
2021/09/07 00:51:52;;;;;;;12.80;11.60;;;17.30;99.90;;;;;;5014335;28;20407;-58
2021/09/07 00:54:24;;;;;;;9.93;9.03;;;17.30;99.90;;;;;;5014254;28;20424;-58
2021/09/07 00:56:51;;;;;;;12.43;10.70;;;17.40;99.90;;;;;;5014583;28;20426;-57
2021/09/07 00:59:19;;;;;;;11.23;9.87;;;17.30;99.90;;;;;;5015058;28;20496;-58
2021/09/07 01:01:45;;;;;;;11.57;10.37;;;17.30;99.90;;;;;;5014202;28;20438;-58
2021/09/07 01:04:10;;;;;;;10.83;9.90;;;17.20;99.90;;;;;;5013753;28;20486;-55
2021/09/07 01:06:36;;;;;;;12.00;10.70;;;17.30;99.90;;;;;;5014084;28;20171;-58
2021/09/07 01:09:02;;;;;;;12.30;10.27;;;17.30;99.90;;;;;;5014086;28;20291;-56
2021/09/07 01:11:28;;;;;;;12.10;10.90;;;17.20;99.90;;;;;;5014033;28;20187;-57
2021/09/07 01:13:54;;;;;;;11.53;10.33;;;17.10;99.90;;;;;;5013866;28;20923;-57
2021/09/07 01:16:19;;;;;;;11.23;10.23;;;17.20;99.90;;;;;;5013993;28;20174;-56
2021/09/07 01:18:45;;;;;;;11.60;10.50;;;17.00;99.90;;;;;;5013539;28;20711;-55
2021/09/07 01:21:12;;;;;;;12.67;11.40;;;16.90;99.90;;;;;;5013932;28;20175;-57
2021/09/07 01:23:43;;;;;;;11.70;10.60;;;16.80;99.90;;;;;;5013595;28;20200;-57
2021/09/07 01:26:11;;;;;;;11.03;10.00;;;16.90;99.90;;;;;;5013813;28;20406;-57
2021/09/07 01:28:36;;;;;;;13.70;11.37;;;16.90;99.90;;;;;;5013838;28;20900;-57
2021/09/07 01:31:03;;;;;;;11.97;10.97;;;16.80;99.90;;;;;;5013461;28;20450;-58
2021/09/07 01:33:29;;;;;;;11.93;10.80;;;16.90;99.90;;;;;;5013003;28;20175;-57
2021/09/07 01:35:56;;;;;;;11.90;10.77;;;17.00;99.90;;;;;;5014200;28;20961;-58
2021/09/07 01:38:23;;;;;;;11.70;10.63;;;17.00;99.90;;;;;;5013583;28;20505;-57
2021/09/07 01:40:48;;;;;;;11.97;10.70;;;16.90;99.90;;;;;;5013883;28;20826;-57
2021/09/07 01:43:15;;;;;;;10.80;9.80;;;16.90;99.90;;;;;;5013554;28;20512;-58
2021/09/07 01:45:42;;;;;;;12.00;10.80;;;16.90;99.90;;;;;;5012965;28;20656;-56
2021/09/07 01:48:08;;;;;;;10.53;9.63;;;16.90;99.90;;;;;;5013597;28;20441;-58
2021/09/07 01:50:33;;;;;;;12.13;10.97;;;16.80;99.90;;;;;;5013718;28;20461;-57
2021/09/07 01:52:59;;;;;;;12.57;11.40;;;16.90;99.90;;;;;;5013471;28;20187;-55
2021/09/07 01:55:25;;;;;;;13.10;11.30;;;17.00;99.90;;;;;;5013616;28;20233;-58
2021/09/07 01:57:50;;;;;;;11.90;10.70;;;17.00;99.90;;;;;;5013932;28;20561;-57
2021/09/07 02:00:16;;;;;;;11.17;10.00;;;17.00;99.90;;;;;;5013369;28;20176;-54
2021/09/07 02:02:42;;;;;;;12.30;11.00;;;17.00;99.90;;;;;;5012749;28;20678;-56
2021/09/07 02:05:08;;;;;;;12.53;10.87;;;17.00;99.90;;;;;;5013270;28;20432;-58
2021/09/07 02:07:34;;;;;;;12.40;11.10;;;17.00;99.90;;;;;;5013828;28;20621;-57
2021/09/07 02:09:59;;;;;;;11.83;10.60;;;16.90;99.90;;;;;;5016697;28;20475;-57
2021/09/07 02:12:25;;;;;;;11.60;10.40;;;16.80;99.90;;;;;;5024214;28;20591;-55
2021/09/07 02:14:51;;;;;;;13.70;11.40;;;16.70;99.90;;;;;;5032923;28;20273;-55
2021/09/07 02:17:16;;;;;;;12.37;11.23;;;16.60;99.90;;;;;;5032725;28;20214;-57
2021/09/07 02:19:42;;;;;;;11.60;9.13;;;16.60;99.90;;;;;;5032893;28;20185;-57
2021/09/07 02:22:08;;;;;;;12.30;10.97;;;16.60;99.90;;;;;;5032783;28;20764;-58
2021/09/07 02:24:33;;;;;;;11.20;10.10;;;16.50;99.90;;;;;;5054001;23;20216;-60
2021/09/07 02:26:59;;;;;;;10.53;9.50;;;16.60;99.90;;;;;;5022734;28;20310;-60
2021/09/07 02:29:24;;;;;;;12.17;10.90;;;16.70;99.90;;;;;;5013147;28;20166;-61
2021/09/07 02:31:50;;;;;;;11.30;10.00;;;16.70;99.90;;;;;;5012762;28;20607;-60
2021/09/07 02:34:16;;;;;;;11.40;10.30;;;16.60;99.90;;;;;;5011595;28;20180;-61
2021/09/07 02:36:42;;;;;;;12.87;11.40;;;16.60;99.90;;;;;;5013066;28;20206;-61
2021/09/07 02:39:08;;;;;;;13.47;10.60;;;16.50;99.90;;;;;;5013023;28;20163;-60
2021/09/07 02:41:34;;;;;;;10.70;9.70;;;16.50;99.90;;;;;;5012962;28;20398;-61
2021/09/07 02:44:00;;;;;;;10.73;9.80;;;16.50;99.90;;;;;;5012880;28;20443;-61
2021/09/07 02:46:25;;;;;;;11.83;10.70;;;16.50;99.90;;;;;;5012862;28;20252;-59
2021/09/07 02:48:51;;;;;;;14.13;12.40;;;16.40;99.90;;;;;;5012976;28;20412;-61
2021/09/07 02:51:17;;;;;;;11.67;10.47;;;16.30;99.90;;;;;;5013226;28;20243;-61
2021/09/07 02:53:43;;;;;;;13.00;11.73;;;16.40;99.90;;;;;;5012844;28;20178;-61
2021/09/07 02:56:08;;;;;;;12.73;11.43;;;16.30;99.90;;;;;;5012775;28;20183;-61
2021/09/07 02:58:34;;;;;;;12.13;10.93;;;16.30;99.90;;;;;;5014488;28;20654;-61
2021/09/07 03:00:59;;;;;;;11.43;10.40;;;16.30;99.90;;;;;;5016165;28;20247;-61
2021/09/07 03:03:25;;;;;;;12.93;11.63;;;16.30;99.90;;;;;;5016036;28;20193;-62
2021/09/07 03:05:51;;;;;;;12.97;11.67;;;16.40;99.90;;;;;;5016302;28;20185;-61
2021/09/07 03:08:16;;;;;;;11.30;10.20;;;16.40;99.90;;;;;;5016704;28;20221;-60
2021/09/07 03:10:42;;;;;;;11.60;10.50;;;16.40;99.90;;;;;;5016443;28;20225;-61
2021/09/07 03:13:07;;;;;;;13.07;11.77;;;16.30;99.90;;;;;;4998642;28;20699;-60
2021/09/07 03:15:33;;;;;;;12.13;10.73;;;16.30;99.90;;;;;;5016355;28;20549;-61
2021/09/07 03:17:59;;;;;;;11.30;10.20;;;16.30;99.90;;;;;;5015904;28;20174;-60
2021/09/07 03:20:24;;;;;;;12.70;10.90;;;16.30;99.90;;;;;;5016097;28;20213;-60
2021/09/07 03:22:50;;;;;;;11.20;10.10;;;16.30;99.90;;;;;;5015869;28;20198;-60
2021/09/07 03:25:16;;;;;;;11.90;10.80;;;16.20;99.90;;;;;;5015725;28;20636;-59
2021/09/07 03:27:41;;;;;;;13.23;11.93;;;16.20;99.90;;;;;;5015947;28;20169;-60
2021/09/07 03:30:07;;;;;;;11.10;10.00;;;16.20;99.90;;;;;;5016104;28;20273;-61
2021/09/07 03:32:33;;;;;;;11.17;9.93;;;16.20;99.90;;;;;;5014046;28;20486;-62
2021/09/07 03:34:58;;;;;;;11.43;10.23;;;16.20;99.90;;;;;;5024639;28;20972;-61
2021/09/07 03:37:24;;;;;;;11.47;10.37;;;16.20;99.90;;;;;;5034941;28;20185;-61
2021/09/07 03:39:49;;;;;;;11.33;10.30;;;16.20;99.90;;;;;;5034910;28;20174;-61
2021/09/07 03:42:15;;;;;;;12.30;10.57;;;16.20;99.90;;;;;;5035384;28;20250;-60
2021/09/07 03:44:41;;;;;;;11.90;10.57;;;16.00;99.90;;;;;;5035544;28;20191;-60
2021/09/07 03:47:06;;;;;;;13.37;10.07;;;15.90;99.90;;;;;;5035249;28;20166;-60
2021/09/07 03:49:32;;;;;;;12.60;11.40;;;15.80;99.90;;;;;;5035274;28;20261;-60
2021/09/07 03:51:58;;;;;;;12.93;11.73;;;15.80;99.90;;;;;;5035257;28;20186;-61
2021/09/07 03:54:23;;;;;;;12.07;10.87;;;15.80;99.90;;;;;;5035470;28;20682;-60
2021/09/07 03:56:49;;;;;;;11.10;10.00;;;15.90;99.90;;;;;;5035733;28;20222;-60
2021/09/07 03:59:15;;;;;;;11.30;10.20;;;15.90;99.90;;;;;;5035467;28;20176;-61
2021/09/07 04:01:41;;;;;;;12.47;11.27;;;16.00;99.90;;;;;;5035041;28;20171;-59
2021/09/07 04:04:10;;;;;;;12.00;11.00;;;16.00;99.90;;;;;;5019812;28;20456;-60
2021/09/07 04:06:36;;;;;;;13.17;11.77;;;15.90;99.90;;;;;;5015203;28;20169;-61
2021/09/07 04:09:02;;;;;;;12.17;10.80;;;15.90;99.90;;;;;;4997246;28;20783;-60
2021/09/07 04:11:28;;;;;;;14.57;12.47;;;16.00;99.90;;;;;;5014987;28;20407;-60
2021/09/07 04:13:53;;;;;;;12.63;11.33;;;16.00;99.90;;;;;;5015280;28;20413;-60
2021/09/07 04:16:19;;;;;;;14.30;12.97;;;16.00;99.90;;;;;;5014734;28;20214;-61
2021/09/07 04:18:45;;;;;;;13.00;10.80;;;16.00;99.90;;;;;;5014947;28;20642;-60
2021/09/07 04:21:12;;;;;;;13.40;12.00;;;16.00;99.90;;;;;;5014412;28;20172;-62
2021/09/07 04:23:38;;;;;;;14.17;12.87;;;16.00;99.90;;;;;;5014366;28;20296;-61
2021/09/07 04:26:05;;;;;;;12.33;11.13;;;15.90;99.90;;;;;;5014731;28;20478;-60
2021/09/07 04:28:30;;;;;;;12.73;11.50;;;15.90;99.90;;;;;;5015011;28;20592;-60
2021/09/07 04:30:56;;;;;;;12.07;10.87;;;15.90;99.90;;;;;;5014579;28;20400;-60
2021/09/07 04:33:21;;;;;;;14.40;12.90;;;15.90;99.90;;;;;;5014584;28;20178;-60
2021/09/07 04:35:47;;;;;;;14.23;12.80;;;16.00;99.90;;;;;;5014619;28;20230;-61
2021/09/07 04:38:12;;;;;;;13.10;11.70;;;16.00;99.90;;;;;;5015183;28;20174;-61
2021/09/07 04:40:38;;;;;;;13.23;11.93;;;16.00;99.90;;;;;;5014565;28;20175;-60
2021/09/07 04:43:04;;;;;;;14.13;12.73;;;15.90;99.90;;;;;;5014496;28;20194;-60
2021/09/07 04:45:29;;;;;;;12.13;10.93;;;15.80;99.90;;;;;;4996839;28;20191;-61
2021/09/07 04:47:55;;;;;;;14.33;12.83;;;15.70;99.90;;;;;;5013956;28;20176;-60
2021/09/07 04:50:20;;;;;;;13.87;12.47;;;15.70;99.90;;;;;;5014919;28;20250;-60
2021/09/07 04:52:46;;;;;;;13.70;12.20;;;15.70;99.90;;;;;;5014260;28;20166;-60
2021/09/07 04:55:12;;;;;;;14.60;12.57;;;15.80;99.90;;;;;;5014189;28;20250;-61
2021/09/07 04:57:37;;;;;;;14.63;13.13;;;15.80;99.90;;;;;;5014241;28;20169;-60
2021/09/07 05:00:04;;;;;;;12.93;11.60;;;15.80;99.90;;;;;;5014189;28;20172;-60
2021/09/07 05:02:35;;;;;;;13.53;12.10;;;15.80;99.90;;;;;;5014037;28;20253;-61
2021/09/07 05:05:06;;;;;;;14.40;13.00;;;15.80;99.90;;;;;;5014352;28;20792;-60
2021/09/07 05:07:31;;;;;;;15.93;12.30;;;15.90;99.90;;;;;;5014068;28;20391;-60
2021/09/07 05:09:57;;;;;;;13.67;12.27;;;15.80;99.90;;;;;;5014027;28;20418;-60
2021/09/07 05:12:25;;;;;;;13.33;11.93;;;15.80;99.90;;;;;;5014214;28;20637;-60
2021/09/07 05:14:50;;;;;;;12.53;11.27;;;15.80;99.90;;;;;;5014121;28;20202;-61
2021/09/07 05:17:16;;;;;;;13.40;12.00;;;15.90;99.90;;;;;;5013560;28;20405;-60
2021/09/07 05:19:41;;;;;;;12.50;11.03;;;16.00;99.90;;;;;;5013911;28;20185;-60
2021/09/07 05:22:07;;;;;;;13.83;12.53;;;16.10;99.90;;;;;;5013284;28;20622;-60
2021/09/07 05:24:33;;;;;;;14.67;13.20;;;16.20;99.90;;;;;;5013911;28;20217;-59
2021/09/07 05:26:58;;;;;;;13.83;12.53;;;16.20;99.90;;;;;;5014048;28;20661;-60
2021/09/07 05:29:24;;;;;;;12.83;11.63;;;16.30;99.90;;;;;;5013706;28;20169;-60
2021/09/07 05:31:49;;;;;;;13.97;12.67;;;16.40;99.90;;;;;;5013703;28;20685;-61
2021/09/07 05:34:16;;;;;;;13.53;12.23;;;16.40;99.90;;;;;;5012735;28;20641;-61
2021/09/07 05:36:42;;;;;;;12.83;11.57;;;16.40;99.90;;;;;;5013495;28;20174;-61
2021/09/07 05:39:07;;;;;;;13.83;11.63;;;16.40;99.90;;;;;;5014170;28;20420;-61
2021/09/07 05:41:33;;;;;;;12.83;11.60;;;16.40;99.90;;;;;;5013640;28;20182;-61
2021/09/07 05:43:59;;;;;;;13.00;11.70;;;16.40;99.90;;;;;;5013634;28;20249;-60
2021/09/07 05:46:24;;;;;;;14.10;12.43;;;16.50;99.90;;;;;;5012917;28;20202;-59
2021/09/07 05:48:50;;;;;;;12.00;10.87;;;16.50;99.90;;;;;;5012942;28;20178;-60
2021/09/07 05:51:16;;;;;;;12.47;11.27;;;16.50;99.90;;;;;;5013643;28;20246;-60
2021/09/07 05:53:42;;;;;;;13.03;11.83;;;16.70;99.90;;;;;;5013162;28;20643;-60
2021/09/07 05:56:10;;;;;;;18.47;16.57;;;16.80;99.90;;;;;;5012904;28;20437;-61
2021/09/07 05:58:36;;;;;;;11.73;10.63;;;16.90;99.90;;;;;;5013257;28;20187;-61
2021/09/07 06:01:02;;;;;;;13.00;11.53;;;17.10;99.90;;;;;;5013100;28;20434;-59
2021/09/07 06:03:27;;;;;;;12.93;11.23;;;17.20;99.90;;;;;;5012489;28;20461;-61
2021/09/07 06:05:53;;;;;;;12.10;11.00;;;17.30;99.90;;;;;;4995381;28;20281;-62
2021/09/07 06:08:18;;;;;;;14.03;12.50;;;17.30;99.90;;;;;;5012956;28;20172;-62
2021/09/07 06:10:44;;;;;;;13.67;11.10;;;17.40;99.90;;;;;;5013422;28;20175;-62
2021/09/07 06:13:10;;;;;;;14.03;12.53;;;17.50;99.90;;;;;;5012307;28;20209;-61
2021/09/07 06:15:35;;;;;;;12.23;11.00;;;17.60;99.90;;;;;;5012638;28;20203;-61
2021/09/07 06:18:01;;;;;;;13.10;11.80;;;17.60;99.90;;;;;;5012685;28;20175;-62
2021/09/07 06:20:26;;;;;;;13.67;12.37;;;17.70;99.90;;;;;;5013341;28;20230;-62
2021/09/07 06:22:52;;;;;;;10.97;9.90;;;17.80;99.90;;;;;;4995228;28;20218;-60
2021/09/07 06:25:19;;;;;;;12.77;11.47;;;17.80;99.90;;;;;;5011852;28;20257;-61
2021/09/07 06:27:44;;;;;;;12.80;11.63;;;17.90;99.90;;;;;;5023620;28;20172;-61
2021/09/07 06:30:10;;;;;;;13.47;11.20;;;18.00;99.90;;;;;;5013045;28;20413;-61
2021/09/07 06:32:36;;;;;;;13.83;11.90;;;18.10;99.90;;;;;;5013987;28;20258;-62
2021/09/07 06:35:02;;;;;;;12.03;10.83;;;18.20;99.90;;;;;;5016526;28;20911;-61
2021/09/07 06:37:27;;;;;;;11.30;10.30;;;18.20;99.90;;;;;;5017007;28;20577;-58
2021/09/07 06:39:53;;;;;;;15.00;13.70;;;18.40;99.90;;;;;;5017226;28;20172;-62
2021/09/07 06:42:18;;;;;;;14.97;12.87;;;18.40;99.90;;;;;;5016545;28;20262;-61
2021/09/07 06:44:44;;;;;;;12.30;11.10;;;18.50;99.90;;;;;;5016652;28;20687;-62
2021/09/07 06:47:10;;;;;;;14.60;13.13;;;18.60;99.90;;;;;;5016771;28;20176;-61
2021/09/07 06:49:35;;;;;;;14.30;12.83;;;18.60;99.90;;;;;;5016406;28;20172;-62
2021/09/07 06:52:01;;;;;;;13.47;12.10;;;18.60;99.90;;;;;;5016222;28;20168;-62
2021/09/07 06:54:27;;;;;;;14.87;13.47;;;18.70;99.90;;;;;;5016407;28;20569;-62
2021/09/07 06:56:52;;;;;;;14.33;12.73;;;18.80;99.90;;;;;;5016637;28;20175;-62
2021/09/07 06:59:18;;;;;;;13.30;12.10;;;18.90;99.90;;;;;;5016284;28;20668;-62
2021/09/07 07:01:43;;;;;;;14.07;12.57;;;19.00;99.90;;;;;;5016060;28;20175;-62
2021/09/07 07:04:09;;;;;;;13.90;12.60;;;19.00;99.90;;;;;;5015860;28;20199;-62
2021/09/07 07:06:34;;;;;;;14.60;13.13;;;19.10;99.90;;;;;;5016597;28;20271;-62
2021/09/07 07:09:00;;;;;;;16.77;12.73;;;19.20;99.90;;;;;;5016485;28;20314;-62
2021/09/07 07:11:26;;;;;;;16.97;13.87;;;19.20;99.90;;;;;;5016418;28;20164;-61
2021/09/07 07:13:51;;;;;;;16.03;14.03;;;19.20;99.90;;;;;;5016364;28;20649;-62
2021/09/07 07:16:17;;;;;;;15.67;13.23;;;19.00;99.90;;;;;;5015964;28;20274;-62
2021/09/07 07:18:42;;;;;;;15.07;13.47;;;19.20;99.90;;;;;;5015540;28;20259;-62
2021/09/07 07:21:08;;;;;;;16.20;13.70;;;19.30;99.90;;;;;;5016105;28;20667;-62
2021/09/07 07:23:34;;;;;;;14.00;12.60;;;19.40;99.90;;;;;;4998387;28;20250;-62
2021/09/07 07:25:59;;;;;;;15.77;14.27;;;19.60;99.90;;;;;;5015950;28;20249;-62
2021/09/07 07:28:25;;;;;;;14.30;12.70;;;19.80;99.90;;;;;;5016223;28;20168;-61
2021/09/07 07:30:50;;;;;;;15.03;13.47;;;20.00;99.90;;;;;;5016302;28;20531;-61
2021/09/07 07:33:16;;;;;;;14.53;12.10;;;19.90;99.90;;;;;;5015170;28;20267;-62
2021/09/07 07:35:42;;;;;;;15.47;13.87;;;20.10;99.90;;;;;;5015638;28;20559;-62
2021/09/07 07:38:08;;;;;;;13.53;12.13;;;20.30;99.90;;;;;;5015639;28;20203;-62
2021/09/07 07:40:35;;;;;;;14.90;13.10;;;20.50;99.90;;;;;;5015488;28;20415;-62
2021/09/07 07:43:01;;;;;;;15.97;13.43;;;20.50;99.90;;;;;;5014986;28;20455;-62
2021/09/07 07:45:27;;;;;;;16.67;14.90;;;20.60;99.90;;;;;;5014784;28;20434;-61
2021/09/07 07:47:53;;;;;;;17.10;12.73;;;20.50;99.90;;;;;;5015222;28;20482;-62
2021/09/07 07:50:18;;;;;;;13.67;12.17;;;20.60;99.90;;;;;;5015153;28;20549;-62
2021/09/07 07:52:44;;;;;;;17.20;14.70;;;20.70;99.90;;;;;;5015036;28;20180;-62
2021/09/07 07:55:10;;;;;;;21.77;15.63;;;20.70;99.90;;;;;;5015029;28;20617;-60
2021/09/07 07:57:36;;;;;;;15.53;13.00;;;20.70;99.90;;;;;;5015128;28;20185;-62
2021/09/07 08:00:02;;;;;;;15.73;14.20;;;20.90;99.90;;;;;;5015269;28;20770;-61
2021/09/07 08:02:28;;;;;;;14.57;13.17;;;21.00;99.90;;;;;;5014448;28;20695;-62
2021/09/07 08:04:54;;;;;;;14.63;12.80;;;21.30;99.90;;;;;;5014416;28;20430;-62
2021/09/07 08:07:20;;;;;;;14.40;12.90;;;21.60;99.90;;;;;;5014777;28;20410;-62
2021/09/07 08:09:45;;;;;;;15.03;13.20;;;21.70;99.90;;;;;;5014837;28;20176;-62
2021/09/07 08:12:16;;;;;;;13.40;12.10;;;21.80;99.90;;;;;;5015369;28;20220;-62
2021/09/07 08:14:42;;;;;;;13.43;12.23;;;22.10;99.90;;;;;;5015095;28;20427;-62
2021/09/07 08:17:08;;;;;;;14.70;12.67;;;22.20;99.90;;;;;;5014558;28;20888;-62
2021/09/07 08:19:33;;;;;;;14.17;12.70;;;22.00;99.90;;;;;;5014483;28;20514;-61
2021/09/07 08:21:59;;;;;;;14.60;12.30;;;22.00;99.90;;;;;;4996844;28;20180;-62
2021/09/07 08:24:26;;;;;;;15.27;13.80;;;22.00;99.90;;;;;;5014587;28;20698;-62
2021/09/07 08:26:51;;;;;;;15.30;13.13;;;22.10;99.90;;;;;;5034301;23;20719;-58
2021/09/07 08:29:17;;;;;;;18.10;14.20;;;21.80;99.90;;;;;;5006245;28;20399;-58
2021/09/07 08:31:43;;;;;;;14.60;12.60;;;21.80;99.90;;;;;;5013640;28;20175;-55
2021/09/07 08:34:08;;;;;;;13.50;12.10;;;21.70;99.90;;;;;;5014061;28;20205;-54
2021/09/07 08:36:34;;;;;;;15.00;12.27;;;21.80;99.90;;;;;;5014652;28;20630;-58
2021/09/07 08:38:59;;;;;;;14.53;12.60;;;21.90;99.90;;;;;;5014302;28;20542;-58
2021/09/07 08:41:25;;;;;;;13.70;12.20;;;22.10;99.90;;;;;;5014447;28;20178;-56
2021/09/07 08:43:51;;;;;;;14.63;12.00;;;22.20;99.90;;;;;;5013554;28;20290;-54
2021/09/07 08:46:18;;;;;;;13.17;11.87;;;22.30;99.90;;;;;;5013877;28;20280;-58
2021/09/07 08:48:45;;;;;;;12.83;11.40;;;22.40;99.90;;;;;;5014401;28;20410;-56
2021/09/07 08:51:11;;;;;;;14.47;12.77;;;22.40;99.90;;;;;;5014676;28;20430;-58
2021/09/07 08:53:36;;;;;;;13.90;12.27;;;22.20;99.90;;;;;;5014912;28;20410;-58
2021/09/07 08:56:06;;;;;;;13.70;12.20;;;22.10;99.90;;;;;;5014684;28;20223;-58
2021/09/07 08:58:32;;;;;;;14.90;13.40;;;22.20;99.90;;;;;;5014868;28;20172;-57
2021/09/07 09:01:08;;;;;;;13.80;12.33;;;22.50;99.90;;;;;;5014924;28;20742;-58
2021/09/07 09:03:33;;;;;;;12.33;11.13;;;22.50;99.90;;;;;;5014119;28;20577;-57
2021/09/07 09:05:59;;;;;;;13.43;11.00;;;22.50;99.90;;;;;;5014170;28;20403;-58
2021/09/07 09:08:25;;;;;;;12.70;11.30;;;22.60;99.90;;;;;;5015112;28;20190;-58
2021/09/07 09:11:06;;;;;;;14.27;12.03;;;22.80;99.90;;;;;;5014640;28;20637;-57
2021/09/07 09:13:41;;;;;;;12.60;11.43;;;22.80;99.90;;;;;;5014451;28;20388;-58
2021/09/07 09:16:07;;;;;;;17.03;12.47;;;22.90;99.90;;;;;;5013974;28;20430;-58
2021/09/07 09:18:38;;;;;;;12.83;11.53;;;23.00;99.90;;;;;;5014141;28;20407;-57
2021/09/07 09:21:32;;;;;;;14.40;12.23;;;23.00;99.90;;;;;;5013637;28;20469;-57
2021/09/07 09:24:16;;;;;;;13.20;11.37;;;23.10;99.90;;;;;;5015931;28;20443;-57
2021/09/07 09:26:59;;;;;;;13.87;12.10;;;23.10;99.90;;;;;;5013855;28;20458;-57
2021/09/07 09:29:31;;;;;;;12.70;11.20;;;23.20;99.90;;;;;;5014168;28;20402;-58
2021/09/07 09:32:06;;;;;;;13.77;11.47;;;23.50;99.90;;;;;;5013966;28;20780;-53
2021/09/07 09:34:35;;;;;;;15.60;12.23;;;23.80;99.90;;;;;;5010612;28;20422;-55
2021/09/07 09:37:02;;;;;;;15.37;12.10;;;23.70;99.90;;;;;;5006423;28;20795;-56
2021/09/07 09:39:40;;;;;;;11.63;10.50;;;23.60;99.90;;;;;;5014983;28;20403;-58
2021/09/07 09:42:07;;;;;;;11.63;10.17;;;23.70;99.90;;;;;;5010376;28;20903;-57
2021/09/07 09:44:33;;;;;;;14.63;12.30;;;23.90;99.90;;;;;;5013572;28;20412;-57
2021/09/07 09:46:58;;;;;;;12.37;11.20;;;23.90;99.90;;;;;;5013538;28;20791;-57
2021/09/07 09:49:27;;;;;;;14.13;11.33;;;23.90;99.90;;;;;;5013496;28;20629;-58
2021/09/07 09:52:07;;;;;;;12.33;10.93;;;23.90;99.90;;;;;;5013696;28;20254;-57
2021/09/07 09:54:35;;;;;;;12.50;11.30;;;24.10;99.90;;;;;;5013349;28;20371;-57
2021/09/07 09:57:02;;;;;;;11.63;10.33;;;24.30;99.90;;;;;;5013183;28;20411;-57
2021/09/07 09:59:28;;;;;;;12.50;11.17;;;24.30;99.90;;;;;;5013537;28;20759;-57
2021/09/07 10:01:58;;;;;;;14.80;11.10;;;24.40;99.90;;;;;;5013394;28;20399;-58
2021/09/07 10:04:27;;;;;;;17.03;12.33;;;24.50;99.90;;;;;;5012912;28;20461;-56
2021/09/07 10:06:53;;;;;;;12.37;11.10;;;24.80;99.90;;;;;;5015875;28;20436;-56
2021/09/07 10:09:24;;;;;;;14.00;10.43;;;24.90;99.90;;;;;;5019701;28;20434;-56
2021/09/07 10:12:05;;;;;;;10.47;9.47;;;25.00;99.90;;;;;;5020182;28;20387;-56
2021/09/07 10:14:34;;;;;;;12.43;11.17;;;25.10;99.90;;;;;;5020053;28;20478;-55
2021/09/07 10:20:26;;;;;;;12.30;9.70;;;25.40;99.90;;;;;;5019902;28;20403;-56
2021/09/07 10:23:07;;;;;;;9.90;9.00;;;25.70;99.40;;;;;;5019944;28;20458;-57
2021/09/07 10:25:53;;;;;;;10.60;9.50;;;26.00;97.40;;;;;;5019873;28;20388;-57
2021/09/07 10:28:29;;;;;;;10.90;8.70;;;26.00;96.70;;;;;;5019541;28;20387;-57
2021/09/07 10:31:03;;;;;;;10.00;9.00;;;25.90;97.20;;;;;;5019535;28;20387;-57
2021/09/07 10:33:40;;;;;;;9.67;8.57;;;26.30;97.30;;;;;;5020086;28;20406;-54
2021/09/07 10:36:12;;;;;;;8.87;7.97;;;26.30;95.30;;;;;;5019393;28;20934;-56
2021/09/07 10:38:37;;;;;;;9.30;7.80;;;26.30;95.70;;;;;;5019751;28;20387;-57
2021/09/07 10:41:03;;;;;;;8.50;7.70;;;26.60;94.90;;;;;;5019433;28;20903;-56
2021/09/07 10:43:48;;;;;;;8.67;7.87;;;26.90;93.80;;;;;;5018058;28;20671;-57
2021/09/07 10:46:15;;;;;;;9.17;8.03;;;27.30;92.80;;;;;;5019523;28;20192;-56
2021/09/07 10:48:41;;;;;;;7.77;7.07;;;27.60;92.30;;;;;;5020002;28;20399;-57
2021/09/07 10:51:06;;;;;;;8.10;6.60;;;28.20;91.40;;;;;;5019229;28;20414;-55
2021/09/07 10:53:32;;;;;;;8.33;7.53;;;29.00;90.30;;;;;;5019543;28;20203;-57
2021/09/07 10:56:24;;;;;;;7.30;6.70;;;30.60;85.70;;;;;;5019376;28;20179;-57
2021/09/07 10:58:49;;;;;;;8.23;7.00;;;30.80;76.60;;;;;;5019426;28;20171;-57
2021/09/07 11:01:26;;;;;;;7.23;6.40;;;30.20;75.40;;;;;;5020645;28;20402;-58
2021/09/07 11:04:31;;;;;;;8.03;7.37;;;30.90;78.90;;;;;;5019001;28;20206;-56
2021/09/07 11:06:57;;;;;;;8.10;7.30;;;30.60;73.50;;;;;;5019158;28;20418;-58
2021/09/07 11:09:53;;;;;;;7.80;7.00;;;31.30;73.00;;;;;;5019555;28;20425;-54
2021/09/07 11:12:32;;;;;;;8.73;7.63;;;31.10;72.50;;;;;;5019399;28;20449;-58
2021/09/07 11:15:08;;;;;;;7.73;7.07;;;31.50;69.60;;;;;;5019546;28;20489;-57
2021/09/07 11:17:35;;;;;;;9.13;8.23;;;32.30;68.60;;;;;;5019137;28;20457;-58
2021/09/07 11:20:08;;;;;;;8.00;7.30;;;31.80;67.70;;;;;;5014814;28;20469;-57
2021/09/07 11:22:35;;;;;;;7.20;6.57;;;32.00;67.60;;;;;;5015959;28;20862;-58
2021/09/07 11:25:10;;;;;;;9.70;7.33;;;32.90;65.80;;;;;;5015810;28;20398;-56
2021/09/07 11:27:48;;;;;;;8.40;7.60;;;33.80;63.80;;;;;;5015653;28;20954;-58
2021/09/07 11:30:24;;;;;;;8.27;7.50;;;32.90;61.80;;;;;;5015731;28;20961;-57
2021/09/07 11:32:58;;;;;;;8.63;7.83;;;33.50;61.80;;;;;;5015562;28;20399;-58
2021/09/07 11:35:24;;;;;;;7.77;6.97;;;33.60;59.30;;;;;;5015579;28;20502;-56
2021/09/07 11:37:49;;;;;;;7.10;6.53;;;33.60;61.50;;;;;;5015957;28;20509;-57
2021/09/07 11:40:19;;;;;;;8.97;7.00;;;33.40;61.60;;;;;;5015762;28;20594;-56
2021/09/07 11:42:49;;;;;;;7.53;6.83;;;33.50;59.60;;;;;;5015927;28;20204;-57
2021/09/07 11:45:23;;;;;;;7.47;6.70;;;32.50;57.90;;;;;;5015767;28;20438;-57
2021/09/07 11:47:48;;;;;;;7.03;6.33;;;32.40;58.70;;;;;;5015621;28;20414;-56
2021/09/07 11:50:20;;;;;;;7.63;6.90;;;33.30;57.40;;;;;;5015300;28;20876;-58
2021/09/07 11:52:51;;;;;;;7.57;6.97;;;32.80;56.30;;;;;;5005226;28;20528;-58
2021/09/07 11:55:37;;;;;;;7.90;7.20;;;33.00;57.90;;;;;;4995973;28;20904;-57
2021/09/07 11:58:02;;;;;;;7.00;6.40;;;33.80;57.20;;;;;;4995965;28;20759;-58
2021/09/07 12:00:28;;;;;;;7.27;6.40;;;33.60;57.20;;;;;;4996229;28;20431;-56
2021/09/07 12:03:13;;;;;;;7.40;6.70;;;33.10;54.80;;;;;;4995834;28;20215;-58
2021/09/07 12:05:57;;;;;;;8.17;7.40;;;33.00;54.20;;;;;;5012747;28;20580;-58
2021/09/07 12:08:52;;;;;;;7.00;6.40;;;31.90;55.70;;;;;;5015738;28;20383;-58
2021/09/07 12:11:29;;;;;;;9.40;7.13;;;32.20;57.50;;;;;;5002267;28;20427;-58
2021/09/07 12:14:05;;;;;;;7.53;6.83;;;32.20;55.80;;;;;;5015713;28;20410;-58
2021/09/07 12:16:32;;;;;;;6.73;6.10;;;31.90;55.60;;;;;;5014918;28;20431;-58
2021/09/07 12:18:57;;;;;;;7.10;6.40;;;32.70;55.60;;;;;;5015422;28;20446;-58
2021/09/07 12:21:25;;;;;;;7.37;6.77;;;32.30;56.50;;;;;;5015314;28;20414;-58
2021/09/07 12:23:53;;;;;;;8.47;7.60;;;32.40;57.00;;;;;;5014547;28;20326;-58
2021/09/07 12:26:36;;;;;;;7.00;6.40;;;33.10;57.10;;;;;;5013850;28;20497;-56
2021/09/07 12:29:31;;;;;;;7.50;6.90;;;34.30;53.70;;;;;;5008451;28;20466;-58
2021/09/07 12:32:03;;;;;;;8.87;7.37;;;33.70;55.20;;;;;;4982839;28;20408;-58
2021/09/07 12:34:28;;;;;;;7.70;6.90;;;33.30;54.60;;;;;;5002641;28;20399;-59
2021/09/07 12:36:54;;;;;;;7.87;6.73;;;33.30;53.80;;;;;;5014762;28;20430;-59